• Join FlightAware (Why Join?)
  • Login
  • US Flag 
05:34PM EDT


 

Airport Tracker/Info


-or-


 

Live Flight TrackerFlight Track Log ✈ ASQ6068 ✈ 26-May-2013 ✈ KDEN - KSGF

Flight Track Log - Related Links

Times and Time Zones

All times are in EDT time to prevent confusion due to time zone crossing. See the ASQ6068 flight status page for this flight to view local times or setup timezone preferences in your user account.

Time Position Orientation Groundspeed Altitude Reporting Facility
EDT Latitude Longitude Course Direction KTS MPH feet Rate Location/Type
12:26PM 39.8106 -104.6392 99° East 186 214 6,500  Level Denver Center
12:27PM 39.7775 -104.5994 137° Southeast 210 242 7,700 1,560 Climbing Denver Center
12:28PM 39.7667 -104.4808 97° East 282 325 9,700 1,740 Climbing Denver Center
12:29PM 39.7952 -104.2424 96° East  Level FlightAware Approximate
12:29PM 39.7678 -104.3628 89° East 302 348 11,400  Level Denver Center
12:30PM 39.7833 -104.0996 105° East  Level FlightAware Approximate
12:30PM 39.7667 -104.2372 91° East 345 397 12,500  Level Denver Center
12:31PM 39.7667 -103.9588 90° East  Level FlightAware Approximate
12:31PM 39.7658 -104.0933 90° East 368 423 14,200  Level Denver Center
12:32PM 39.7500 -103.8169 99° East  Level FlightAware Approximate
12:32PM 39.7650 -103.9569 90° East 376 433 15,800  Level Denver Center
12:33PM 39.7517 -103.8203 97° East 381 438 17,300 1,500 Climbing Denver Center
12:35PM 39.7364 -103.6744 98° East 386 444 18,900 1,440 Climbing Denver Center
12:36PM 39.7250 -103.5375 96° East 392 451 20,300 1,500 Climbing Denver Center
12:37PM 39.7119 -103.3775 96° East 402 463 22,000 1,560 Climbing Denver Center
12:38PM 39.7008 -103.2361 96° East 411 473 23,500 1,560 Climbing Denver Center
12:39PM 39.6875 -103.0717 96° East 410 472 25,200 1,500 Climbing Denver Center
12:40PM 39.6747 -102.9281 97° East 416 479 26,700 1,680 Climbing Denver Center
12:41PM 39.6600 -102.7650 97° East 411 473 28,700 1,740 Climbing Denver Center
12:42PM 39.6467 -102.6308 97° East 401 461 30,300 1,560 Climbing Denver Center
12:43PM 39.6350 -102.4797 96° East 389 448 32,000 1,380 Climbing Denver Center
12:44PM 39.6228 -102.3481 97° East 385 443 33,200 1,200 Climbing Denver Center
12:45PM 39.6097 -102.1936 96° East 385 443 34,600 840 Climbing Denver Center
12:46PM 39.5978 -102.0625 97° East 385 443 35,000 180 Climbing Denver Center
12:47PM 39.5847 -101.8972 96° East 397 457 35,000  Level Denver Center
12:48PM 39.5728 -101.7478 96° East 414 476 35,000  Level Denver Center
12:49PM 39.5597 -101.5892 96° East 441 507 35,000  Level Denver Center
12:50PM 39.5439 -101.4056 96° East 457 526 35,000  Level Denver Center
12:51PM 39.5222 -101.2486 100° East 463 533 35,000  Level Denver Center
12:52PM 39.4953 -101.0681 101° East 459 528 35,000  Level Denver Center
12:53PM 39.4714 -100.9172 102° East 453 521 35,000  Level Denver Center
12:54PM 39.4442 -100.7361 101° East 458 527 35,000  Level Denver Center
12:55PM 39.4208 -100.5817 101° East 459 528 35,000  Level Denver Center
12:56PM 39.3928 -100.4039 101° East 456 525 35,000  Level Denver Center
12:57PM 39.3694 -100.2506 101° East 456 525 35,000  Level Denver Center
12:58PM 39.3406 -100.0689 102° East 461 531 35,000  Level Denver Center
12:59PM 39.3164 -99.9169 102° East 454 522 35,000  Level Denver Center
01:00PM 39.2922 -99.7642 102° East 454 522 35,000  Level Denver Center
01:01PM 39.2631 -99.5850 102° East 457 526 35,000  Level Denver Center
01:02PM 39.2386 -99.4322 102° East 457 526 35,000  Level Denver Center
01:03PM 39.2228 -99.3419 103° East 461 531 35,000  Level Kansas City Center
01:04PM 39.1958 -99.1811 102° East 459 528 35,000  Level Kansas City Center
01:05PM 39.1697 -99.0203 102° East 459 528 35,000  Level Kansas City Center
01:06PM 39.1414 -98.8558 102° East 460 529 35,000  Level Kansas City Center
01:07PM 39.1150 -98.7003 102° East 455 524 35,000  Level Kansas City Center
01:08PM 39.0825 -98.5092 102° East 455 524 35,000 -420 Level Kansas City Center
01:09PM 39.0411 -98.3567 109° East 450 518 34,200 -840 Descending Kansas City Center
01:10PM 38.9958 -98.2094 112° Southeast 443 510 33,300 -600 Descending Kansas City Center
01:11PM 38.9497 -98.0569 111° Southeast 451 519 33,000 -180 Descending Kansas City Center
01:12PM 38.9011 -97.9011 112° Southeast 465 535 33,000  Level Kansas City Center
01:13PM 38.8503 -97.7400 112° Southeast 463 533 33,000  Level Kansas City Center
01:14PM 38.7975 -97.5717 112° Southeast 459 528 33,000  Level Kansas City Center
01:15PM 38.7567 -97.4444 112° Southeast 457 526 33,000  Level Kansas City Center
01:16PM 38.7097 -97.2925 112° Southeast 458 527 33,000  Level Kansas City Center
01:17PM 38.6511 -97.1106 112° Southeast 459 528 33,000  Level Kansas City Center
01:18PM 38.6019 -96.9586 112° Southeast 460 529 33,000  Level Kansas City Center
01:20PM 38.5333 -96.8085 120° Southeast  Level FlightAware Approximate
01:20PM 38.5047 -96.6583 120° Southeast 458 527 33,000  Level Kansas City Center
01:21PM 38.4561 -96.5086 112° Southeast 455 524 33,000  Level Kansas City Center
01:22PM 38.4050 -96.3511 112° Southeast 453 521 33,000  Level Kansas City Center
01:23PM 38.3494 -96.1861 113° Southeast 456 525 33,000  Level Kansas City Center
01:24PM 38.3025 -96.0453 113° Southeast 456 525 33,000  Level Kansas City Center
01:26PM 38.2478 -95.8794 113° Southeast 457 526 33,000  Level Kansas City Center
01:27PM 38.1994 -95.7369 113° Southeast 458 527 33,000  Level Kansas City Center
01:28PM 38.1436 -95.5717 113° Southeast 457 526 33,000  Level Kansas City Center
01:29PM 38.0958 -95.4286 113° Southeast 461 531 33,000  Level Kansas City Center
01:30PM 38.0475 -95.2856 113° Southeast 461 531 33,000 -360 Level Kansas City Center
01:31PM 37.9889 -95.1203 114° Southeast 462 532 32,300 -1,380 Descending Kansas City Center
01:32PM 37.9406 -94.9794 113° Southeast 459 528 30,200 -2,400 Descending Kansas City Center
01:33PM 37.8853 -94.8206 114° Southeast 449 517 27,400 -2,580 Descending Kansas City Center
01:34PM 37.8358 -94.6797 114° Southeast 453 521 25,000 -2,280 Descending Kansas City Center
01:35PM 37.7786 -94.5147 114° Southeast 458 527 22,700 -2,280 Descending Kansas City Center
01:36PM 37.7317 -94.3803 114° Southeast 451 519 20,300 -2,640 Descending Kansas City Center
01:37PM 37.6828 -94.2411 114° Southeast 439 505 17,300 -2,880 Descending Kansas City Center
01:38PM 37.6272 -94.0883 115° Southeast 408 470 14,400 -2,820 Descending Kansas City Center
01:39PM 37.5839 -93.9656 114° Southeast 390 449 11,500 -2,160 Descending Kansas City Center
01:40PM 37.5433 -93.8561 115° Southeast 362 417 10,000 -1,740 Descending Kansas City Center
01:41PM 37.5125 -93.7692 114° Southeast 300 345 8,000 -2,160 Descending Kansas City Center
01:42PM 37.4828 -93.6844 114° Southeast 273 314 5,600 -1,860 Descending Kansas City Center
01:43PM 37.4447 -93.6200 127° Southeast 247 284 4,200 -1,020 Descending Kansas City Center
01:44PM 37.4008 -93.5683 137° Southeast 227 261 3,500 -720 Descending Kansas City Center